Saint Stephens, Nebraska
Current Conditions -  °F | °C
As of 2:53 PM on Thursday 23 Oct 2014 (Local Time) from KHSI Reporting Station
Overcast Overcast  
Wind Chill: 58°   Ceiling: 500
Heat Index: 58°   Visibility: 8mi
Dew Point: 54°   Wind: 9mph
Humidity: 87%   Direction: 190°S
Pressure: 30.05"   Gusts: NA
Location:  40.2635°N, 98.2176°W
Report Text: KHSI 231953Z AUTO 19008KT 8SM OVC005 14/12 A3005 RMK AO2 SLP174 T01440122
Loading
Personal Weather Stations






























Interactive Weather Map
Tropical Storm Tracking
New forecast layout! Learn more

10-Day Weather Forecast

Advertisements
Track Severe Weather on mobile